sensor_id;sensor_type;location;lat;lon;timestamp;temperature;humidity
21762;DHT22;11203;50.870;20.682;2022-11-14T00:00:40;5.70;99.90
21762;DHT22;11203;50.870;20.682;2022-11-14T00:03:12;5.70;99.90
21762;DHT22;11203;50.870;20.682;2022-11-14T00:05:40;5.70;99.90
21762;DHT22;11203;50.870;20.682;2022-11-14T00:08:18;5.80;99.90
21762;DHT22;11203;50.870;20.682;2022-11-14T00:10:47;5.70;99.90
21762;DHT22;11203;50.870;20.682;2022-11-14T00:13:16;5.80;99.90
21762;DHT22;11203;50.870;20.682;2022-11-14T00:15:43;5.80;99.90
21762;DHT22;11203;50.870;20.682;2022-11-14T00:18:10;5.70;99.90
21762;DHT22;11203;50.870;20.682;2022-11-14T00:20:36;5.70;99.90
21762;DHT22;11203;50.870;20.682;2022-11-14T00:23:02;5.70;99.90
21762;DHT22;11203;50.870;20.682;2022-11-14T00:25:29;5.70;99.90
21762;DHT22;11203;50.870;20.682;2022-11-14T00:27:56;5.60;1.00
21762;DHT22;11203;50.870;20.682;2022-11-14T00:30:24;5.60;1.00
21762;DHT22;11203;50.870;20.682;2022-11-14T00:32:50;5.70;1.00
21762;DHT22;11203;50.870;20.682;2022-11-14T00:35:17;5.70;99.90
21762;DHT22;11203;50.870;20.682;2022-11-14T00:37:42;5.60;1.00
21762;DHT22;11203;50.870;20.682;2022-11-14T00:40:08;5.60;1.00
21762;DHT22;11203;50.870;20.682;2022-11-14T00:42:35;5.60;1.00
21762;DHT22;11203;50.870;20.682;2022-11-14T00:45:01;5.60;1.00
21762;DHT22;11203;50.870;20.682;2022-11-14T00:47:27;5.60;1.00
21762;DHT22;11203;50.870;20.682;2022-11-14T00:49:53;5.60;1.00
21762;DHT22;11203;50.870;20.682;2022-11-14T00:52:19;5.60;1.00
21762;DHT22;11203;50.870;20.682;2022-11-14T00:54:45;5.60;1.00
21762;DHT22;11203;50.870;20.682;2022-11-14T00:57:11;5.60;1.00
21762;DHT22;11203;50.870;20.682;2022-11-14T00:59:37;5.60;1.00
21762;DHT22;11203;50.870;20.682;2022-11-14T01:02:03;5.60;1.00
21762;DHT22;11203;50.870;20.682;2022-11-14T01:04:29;5.70;1.00
21762;DHT22;11203;50.870;20.682;2022-11-14T01:06:55;5.60;1.00
21762;DHT22;11203;50.870;20.682;2022-11-14T01:09:21;5.60;1.00
21762;DHT22;11203;50.870;20.682;2022-11-14T01:11:48;5.60;1.00
21762;DHT22;11203;50.870;20.682;2022-11-14T01:14:14;5.60;23.90
21762;DHT22;11203;50.870;20.682;2022-11-14T01:16:40;5.60;1.00
21762;DHT22;11203;50.870;20.682;2022-11-14T01:19:06;5.50;1.00
21762;DHT22;11203;50.870;20.682;2022-11-14T01:21:32;5.50;1.00
21762;DHT22;11203;50.870;20.682;2022-11-14T01:23:58;5.50;1.00
21762;DHT22;11203;50.870;20.682;2022-11-14T01:26:24;5.50;99.90
21762;DHT22;11203;50.870;20.682;2022-11-14T01:28:50;5.40;1.00
21762;DHT22;11203;50.870;20.682;2022-11-14T01:31:19;5.50;1.00
21762;DHT22;11203;50.870;20.682;2022-11-14T01:33:51;5.30;1.00
21762;DHT22;11203;50.870;20.682;2022-11-14T01:36:19;5.30;1.00
21762;DHT22;11203;50.870;20.682;2022-11-14T01:38:46;5.20;1.00
21762;DHT22;11203;50.870;20.682;2022-11-14T01:41:18;5.30;1.00
21762;DHT22;11203;50.870;20.682;2022-11-14T01:43:44;5.30;1.00
21762;DHT22;11203;50.870;20.682;2022-11-14T01:51:48;5.40;1.00
21762;DHT22;11203;50.870;20.682;2022-11-14T01:54:24;5.30;1.00
21762;DHT22;11203;50.870;20.682;2022-11-14T01:56:59;5.30;1.00
21762;DHT22;11203;50.870;20.682;2022-11-14T01:59:37;5.40;1.00
21762;DHT22;11203;50.870;20.682;2022-11-14T02:02:14;5.40;1.00
21762;DHT22;11203;50.870;20.682;2022-11-14T02:04:46;5.40;1.00
21762;DHT22;11203;50.870;20.682;2022-11-14T02:07:14;5.40;1.00
21762;DHT22;11203;50.870;20.682;2022-11-14T02:09:44;5.50;1.00
21762;DHT22;11203;50.870;20.682;2022-11-14T02:12:13;5.40;1.00
21762;DHT22;11203;50.870;20.682;2022-11-14T02:14:42;5.50;1.00
21762;DHT22;11203;50.870;20.682;2022-11-14T02:17:13;5.50;1.00
21762;DHT22;11203;50.870;20.682;2022-11-14T02:19:50;5.50;1.00
21762;DHT22;11203;50.870;20.682;2022-11-14T02:22:22;5.50;1.00
21762;DHT22;11203;50.870;20.682;2022-11-14T02:24:49;5.50;91.70
21762;DHT22;11203;50.870;20.682;2022-11-14T02:27:15;5.40;1.00
21762;DHT22;11203;50.870;20.682;2022-11-14T02:29:42;5.40;1.00
21762;DHT22;11203;50.870;20.682;2022-11-14T02:32:08;5.40;1.00
21762;DHT22;11203;50.870;20.682;2022-11-14T02:34:34;5.40;1.00
21762;DHT22;11203;50.870;20.682;2022-11-14T02:37:00;5.40;1.00
21762;DHT22;11203;50.870;20.682;2022-11-14T02:39:26;5.30;1.00
21762;DHT22;11203;50.870;20.682;2022-11-14T02:41:52;5.30;1.00
21762;DHT22;11203;50.870;20.682;2022-11-14T02:44:19;5.30;1.00
21762;DHT22;11203;50.870;20.682;2022-11-14T02:46:45;5.40;1.00
21762;DHT22;11203;50.870;20.682;2022-11-14T02:49:11;5.30;1.00
21762;DHT22;11203;50.870;20.682;2022-11-14T02:51:37;5.30;1.00
21762;DHT22;11203;50.870;20.682;2022-11-14T02:54:03;5.30;1.00
21762;DHT22;11203;50.870;20.682;2022-11-14T02:56:29;5.30;1.00
21762;DHT22;11203;50.870;20.682;2022-11-14T02:58:55;5.30;1.00
21762;DHT22;11203;50.870;20.682;2022-11-14T03:01:25;5.40;1.00
21762;DHT22;11203;50.870;20.682;2022-11-14T03:03:51;5.40;1.00
21762;DHT22;11203;50.870;20.682;2022-11-14T03:06:17;5.30;1.00
21762;DHT22;11203;50.870;20.682;2022-11-14T03:08:43;5.30;1.00
21762;DHT22;11203;50.870;20.682;2022-11-14T03:11:10;5.20;1.00
21762;DHT22;11203;50.870;20.682;2022-11-14T03:13:36;5.30;1.00
21762;DHT22;11203;50.870;20.682;2022-11-14T03:16:10;5.30;1.00
21762;DHT22;11203;50.870;20.682;2022-11-14T03:18:38;5.30;1.00
21762;DHT22;11203;50.870;20.682;2022-11-14T03:21:09;5.30;1.00
21762;DHT22;11203;50.870;20.682;2022-11-14T03:23:40;5.30;1.00
21762;DHT22;11203;50.870;20.682;2022-11-14T03:26:08;5.20;1.00
21762;DHT22;11203;50.870;20.682;2022-11-14T03:28:36;5.20;1.00
21762;DHT22;11203;50.870;20.682;2022-11-14T03:31:03;5.20;1.00
21762;DHT22;11203;50.870;20.682;2022-11-14T03:33:32;5.20;1.00
21762;DHT22;11203;50.870;20.682;2022-11-14T03:35:58;5.30;1.00
21762;DHT22;11203;50.870;20.682;2022-11-14T03:38:24;5.30;1.00
21762;DHT22;11203;50.870;20.682;2022-11-14T03:40:50;5.30;1.00
21762;DHT22;11203;50.870;20.682;2022-11-14T03:43:18;5.30;1.00
21762;DHT22;11203;50.870;20.682;2022-11-14T03:45:45;5.30;1.00
21762;DHT22;11203;50.870;20.682;2022-11-14T03:48:12;5.30;1.00
21762;DHT22;11203;50.870;20.682;2022-11-14T03:50:40;5.20;1.00
21762;DHT22;11203;50.870;20.682;2022-11-14T03:53:07;5.20;1.00
21762;DHT22;11203;50.870;20.682;2022-11-14T03:55:33;5.20;1.00
21762;DHT22;11203;50.870;20.682;2022-11-14T03:57:59;5.10;1.00
21762;DHT22;11203;50.870;20.682;2022-11-14T04:00:26;5.20;1.00
21762;DHT22;11203;50.870;20.682;2022-11-14T04:02:57;5.20;1.00
21762;DHT22;11203;50.870;20.682;2022-11-14T04:05:23;5.20;1.00
21762;DHT22;11203;50.870;20.682;2022-11-14T04:07:49;5.20;1.00
21762;DHT22;11203;50.870;20.682;2022-11-14T04:10:16;5.20;1.00
21762;DHT22;11203;50.870;20.682;2022-11-14T04:12:50;5.10;1.00
21762;DHT22;11203;50.870;20.682;2022-11-14T04:15:18;5.10;1.00
21762;DHT22;11203;50.870;20.682;2022-11-14T04:17:45;5.00;1.00
21762;DHT22;11203;50.870;20.682;2022-11-14T04:20:12;5.10;1.00
21762;DHT22;11203;50.870;20.682;2022-11-14T04:22:39;5.10;99.90
21762;DHT22;11203;50.870;20.682;2022-11-14T04:25:06;5.10;1.00
21762;DHT22;11203;50.870;20.682;2022-11-14T04:27:33;5.10;1.00
21762;DHT22;11203;50.870;20.682;2022-11-14T04:29:59;5.10;1.00
21762;DHT22;11203;50.870;20.682;2022-11-14T04:32:25;5.10;1.00
21762;DHT22;11203;50.870;20.682;2022-11-14T04:34:52;5.00;1.00
21762;DHT22;11203;50.870;20.682;2022-11-14T04:37:18;5.00;1.00
21762;DHT22;11203;50.870;20.682;2022-11-14T04:39:44;5.00;1.00
21762;DHT22;11203;50.870;20.682;2022-11-14T04:42:10;5.00;1.00
21762;DHT22;11203;50.870;20.682;2022-11-14T04:44:36;5.00;1.00
21762;DHT22;11203;50.870;20.682;2022-11-14T04:47:02;5.10;1.00
21762;DHT22;11203;50.870;20.682;2022-11-14T04:49:28;5.10;1.00
21762;DHT22;11203;50.870;20.682;2022-11-14T04:51:54;5.10;1.00
21762;DHT22;11203;50.870;20.682;2022-11-14T04:54:20;5.10;99.90
21762;DHT22;11203;50.870;20.682;2022-11-14T04:56:46;5.10;1.00
21762;DHT22;11203;50.870;20.682;2022-11-14T04:59:12;5.10;1.00
21762;DHT22;11203;50.870;20.682;2022-11-14T05:01:39;5.10;1.00
21762;DHT22;11203;50.870;20.682;2022-11-14T05:04:05;5.10;1.00
21762;DHT22;11203;50.870;20.682;2022-11-14T05:06:31;5.10;1.00
21762;DHT22;11203;50.870;20.682;2022-11-14T05:08:57;5.10;1.00
21762;DHT22;11203;50.870;20.682;2022-11-14T05:11:23;5.20;1.00
21762;DHT22;11203;50.870;20.682;2022-11-14T05:13:49;5.20;1.00
21762;DHT22;11203;50.870;20.682;2022-11-14T05:16:15;5.20;1.00
21762;DHT22;11203;50.870;20.682;2022-11-14T05:18:41;5.30;1.00
21762;DHT22;11203;50.870;20.682;2022-11-14T05:21:12;5.30;99.90
21762;DHT22;11203;50.870;20.682;2022-11-14T05:23:39;5.20;1.00
21762;DHT22;11203;50.870;20.682;2022-11-14T05:26:13;5.20;1.00
21762;DHT22;11203;50.870;20.682;2022-11-14T05:28:41;5.20;1.00
21762;DHT22;11203;50.870;20.682;2022-11-14T05:31:10;5.20;1.00
21762;DHT22;11203;50.870;20.682;2022-11-14T05:33:44;5.20;99.90
21762;DHT22;11203;50.870;20.682;2022-11-14T05:36:14;5.20;1.00
21762;DHT22;11203;50.870;20.682;2022-11-14T05:38:41;5.10;1.00
21762;DHT22;11203;50.870;20.682;2022-11-14T05:41:14;5.10;1.00
21762;DHT22;11203;50.870;20.682;2022-11-14T05:43:42;5.10;1.00
21762;DHT22;11203;50.870;20.682;2022-11-14T05:46:10;5.10;1.00
21762;DHT22;11203;50.870;20.682;2022-11-14T05:48:37;5.20;1.00
21762;DHT22;11203;50.870;20.682;2022-11-14T05:51:05;5.10;1.00
21762;DHT22;11203;50.870;20.682;2022-11-14T05:53:33;5.20;1.00
21762;DHT22;11203;50.870;20.682;2022-11-14T05:56:04;5.20;1.00
21762;DHT22;11203;50.870;20.682;2022-11-14T05:58:33;5.20;1.00
21762;DHT22;11203;50.870;20.682;2022-11-14T06:01:09;5.30;1.00
21762;DHT22;11203;50.870;20.682;2022-11-14T06:03:42;5.30;1.00
21762;DHT22;11203;50.870;20.682;2022-11-14T06:06:15;5.60;1.00
21762;DHT22;11203;50.870;20.682;2022-11-14T06:08:43;5.60;1.00
21762;DHT22;11203;50.870;20.682;2022-11-14T06:11:11;6.00;1.00
21762;DHT22;11203;50.870;20.682;2022-11-14T06:13:40;5.60;99.90
21762;DHT22;11203;50.870;20.682;2022-11-14T06:16:10;5.50;99.90
21762;DHT22;11203;50.870;20.682;2022-11-14T06:18:39;5.60;1.00
21762;DHT22;11203;50.870;20.682;2022-11-14T06:21:17;5.50;1.00
21762;DHT22;11203;50.870;20.682;2022-11-14T06:23:44;5.50;1.00
21762;DHT22;11203;50.870;20.682;2022-11-14T06:26:25;5.50;1.00
21762;DHT22;11203;50.870;20.682;2022-11-14T06:28:55;5.50;1.00
21762;DHT22;11203;50.870;20.682;2022-11-14T06:31:22;5.50;1.00
21762;DHT22;11203;50.870;20.682;2022-11-14T06:33:48;5.50;1.00
21762;DHT22;11203;50.870;20.682;2022-11-14T06:36:16;5.60;1.00
21762;DHT22;11203;50.870;20.682;2022-11-14T06:38:42;5.60;1.00
21762;DHT22;11203;50.870;20.682;2022-11-14T06:41:15;5.60;1.00
21762;DHT22;11203;50.870;20.682;2022-11-14T06:43:47;5.60;1.00
21762;DHT22;11203;50.870;20.682;2022-11-14T06:46:18;5.70;1.00
21762;DHT22;11203;50.870;20.682;2022-11-14T06:48:46;5.70;1.00
21762;DHT22;11203;50.870;20.682;2022-11-14T06:51:14;5.60;1.00
21762;DHT22;11203;50.870;20.682;2022-11-14T06:53:41;5.70;99.90
21762;DHT22;11203;50.870;20.682;2022-11-14T06:56:10;5.70;99.90
21762;DHT22;11203;50.870;20.682;2022-11-14T06:58:40;5.70;1.00
21762;DHT22;11203;50.870;20.682;2022-11-14T07:01:17;5.80;1.00
21762;DHT22;11203;50.870;20.682;2022-11-14T07:03:45;5.80;1.00
21762;DHT22;11203;50.870;20.682;2022-11-14T07:06:18;5.90;99.90
21762;DHT22;11203;50.870;20.682;2022-11-14T07:08:51;5.90;99.90
21762;DHT22;11203;50.870;20.682;2022-11-14T07:11:21;5.90;99.90
21762;DHT22;11203;50.870;20.682;2022-11-14T07:13:57;5.90;99.90
21762;DHT22;11203;50.870;20.682;2022-11-14T07:16:26;5.90;99.90
21762;DHT22;11203;50.870;20.682;2022-11-14T07:19:00;5.90;99.90
21762;DHT22;11203;50.870;20.682;2022-11-14T07:21:29;5.90;99.90
21762;DHT22;11203;50.870;20.682;2022-11-14T07:23:57;5.80;99.90
21762;DHT22;11203;50.870;20.682;2022-11-14T07:26:23;5.80;99.90
21762;DHT22;11203;50.870;20.682;2022-11-14T07:28:49;5.90;99.90
21762;DHT22;11203;50.870;20.682;2022-11-14T07:31:17;5.90;99.90
21762;DHT22;11203;50.870;20.682;2022-11-14T07:33:45;5.90;99.90
21762;DHT22;11203;50.870;20.682;2022-11-14T07:36:12;5.90;99.90
21762;DHT22;11203;50.870;20.682;2022-11-14T07:38:39;5.90;99.90
21762;DHT22;11203;50.870;20.682;2022-11-14T07:41:10;6.00;99.90
21762;DHT22;11203;50.870;20.682;2022-11-14T07:43:37;6.00;99.90
21762;DHT22;11203;50.870;20.682;2022-11-14T07:46:14;6.00;99.90
21762;DHT22;11203;50.870;20.682;2022-11-14T07:48:41;6.00;99.90
21762;DHT22;11203;50.870;20.682;2022-11-14T07:51:16;6.00;99.90
21762;DHT22;11203;50.870;20.682;2022-11-14T07:53:43;6.00;99.90
21762;DHT22;11203;50.870;20.682;2022-11-14T07:56:10;6.00;99.90
21762;DHT22;11203;50.870;20.682;2022-11-14T07:58:37;6.10;99.90
21762;DHT22;11203;50.870;20.682;2022-11-14T08:01:06;6.10;99.90
21762;DHT22;11203;50.870;20.682;2022-11-14T08:03:35;6.10;99.90
21762;DHT22;11203;50.870;20.682;2022-11-14T08:06:07;6.00;99.90
21762;DHT22;11203;50.870;20.682;2022-11-14T08:08:37;6.00;99.90
21762;DHT22;11203;50.870;20.682;2022-11-14T08:11:04;5.90;99.90
21762;DHT22;11203;50.870;20.682;2022-11-14T08:13:30;6.10;99.90
21762;DHT22;11203;50.870;20.682;2022-11-14T08:15:56;6.10;99.90
21762;DHT22;11203;50.870;20.682;2022-11-14T08:18:24;6.20;99.90
21762;DHT22;11203;50.870;20.682;2022-11-14T08:20:51;6.10;99.90
21762;DHT22;11203;50.870;20.682;2022-11-14T08:23:17;6.20;99.90
21762;DHT22;11203;50.870;20.682;2022-11-14T08:25:43;6.30;99.90
21762;DHT22;11203;50.870;20.682;2022-11-14T08:28:10;6.30;99.90
21762;DHT22;11203;50.870;20.682;2022-11-14T08:30:36;6.20;99.90
21762;DHT22;11203;50.870;20.682;2022-11-14T08:33:06;6.20;99.90
21762;DHT22;11203;50.870;20.682;2022-11-14T08:35:32;6.30;99.90
21762;DHT22;11203;50.870;20.682;2022-11-14T08:38:00;6.40;99.90
21762;DHT22;11203;50.870;20.682;2022-11-14T08:40:29;6.40;99.90
21762;DHT22;11203;50.870;20.682;2022-11-14T08:43:02;6.40;99.90
21762;DHT22;11203;50.870;20.682;2022-11-14T08:45:29;6.40;99.90
21762;DHT22;11203;50.870;20.682;2022-11-14T08:47:55;6.40;99.90
21762;DHT22;11203;50.870;20.682;2022-11-14T08:50:21;6.40;99.90
21762;DHT22;11203;50.870;20.682;2022-11-14T08:52:51;6.40;99.90
21762;DHT22;11203;50.870;20.682;2022-11-14T08:55:18;6.40;99.90
21762;DHT22;11203;50.870;20.682;2022-11-14T08:57:45;6.50;99.90
21762;DHT22;11203;50.870;20.682;2022-11-14T09:00:12;6.50;99.90
21762;DHT22;11203;50.870;20.682;2022-11-14T09:02:39;6.50;99.90
21762;DHT22;11203;50.870;20.682;2022-11-14T09:05:06;6.60;99.90
21762;DHT22;11203;50.870;20.682;2022-11-14T09:07:33;6.60;99.90
21762;DHT22;11203;50.870;20.682;2022-11-14T09:10:00;6.70;99.90
21762;DHT22;11203;50.870;20.682;2022-11-14T09:12:26;6.80;99.90
21762;DHT22;11203;50.870;20.682;2022-11-14T09:14:52;6.90;99.90
21762;DHT22;11203;50.870;20.682;2022-11-14T09:17:18;6.90;99.90
21762;DHT22;11203;50.870;20.682;2022-11-14T09:19:44;7.00;99.90
21762;DHT22;11203;50.870;20.682;2022-11-14T09:22:10;6.80;99.90
21762;DHT22;11203;50.870;20.682;2022-11-14T09:24:39;6.80;99.90
21762;DHT22;11203;50.870;20.682;2022-11-14T09:27:05;6.90;99.90
21762;DHT22;11203;50.870;20.682;2022-11-14T09:29:32;7.00;99.90
21762;DHT22;11203;50.870;20.682;2022-11-14T09:31:58;7.00;99.90
21762;DHT22;11203;50.870;20.682;2022-11-14T09:34:25;6.90;99.90
21762;DHT22;11203;50.870;20.682;2022-11-14T09:36:52;7.00;99.90
21762;DHT22;11203;50.870;20.682;2022-11-14T09:39:18;7.00;99.90
21762;DHT22;11203;50.870;20.682;2022-11-14T09:47:29;7.40;99.90
21762;DHT22;11203;50.870;20.682;2022-11-14T09:50:12;7.40;99.90
21762;DHT22;11203;50.870;20.682;2022-11-14T09:52:43;7.40;99.90
21762;DHT22;11203;50.870;20.682;2022-11-14T09:55:32;7.50;99.90
21762;DHT22;11203;50.870;20.682;2022-11-14T09:58:01;7.60;99.90
21762;DHT22;11203;50.870;20.682;2022-11-14T10:00:38;7.70;99.90
21762;DHT22;11203;50.870;20.682;2022-11-14T10:03:28;7.70;99.90
21762;DHT22;11203;50.870;20.682;2022-11-14T10:12:04;7.90;99.90
21762;DHT22;11203;50.870;20.682;2022-11-14T10:18:32;8.00;99.90
21762;DHT22;11203;50.870;20.682;2022-11-14T10:34:12;7.80;99.90
21762;DHT22;11203;50.870;20.682;2022-11-14T10:36:57;7.90;99.90
21762;DHT22;11203;50.870;20.682;2022-11-14T10:39:56;8.00;99.90
21762;DHT22;11203;50.870;20.682;2022-11-14T10:42:33;8.10;99.90
21762;DHT22;11203;50.870;20.682;2022-11-14T10:45:14;8.10;99.90
21762;DHT22;11203;50.870;20.682;2022-11-14T10:47:47;8.10;99.90
21762;DHT22;11203;50.870;20.682;2022-11-14T10:50:56;8.10;99.90
21762;DHT22;11203;50.870;20.682;2022-11-14T10:56:16;8.30;99.90
21762;DHT22;11203;50.870;20.682;2022-11-14T10:58:43;8.30;99.90
21762;DHT22;11203;50.870;20.682;2022-11-14T11:09:38;8.30;99.90
21762;DHT22;11203;50.870;20.682;2022-11-14T11:18:03;8.30;99.90
21762;DHT22;11203;50.870;20.682;2022-11-14T11:20:33;8.30;99.90
21762;DHT22;11203;50.870;20.682;2022-11-14T11:23:21;8.30;99.90
21762;DHT22;11203;50.870;20.682;2022-11-14T11:25:59;8.30;99.90
21762;DHT22;11203;50.870;20.682;2022-11-14T11:28:26;8.30;99.90
21762;DHT22;11203;50.870;20.682;2022-11-14T11:31:06;8.30;99.90
21762;DHT22;11203;50.870;20.682;2022-11-14T11:33:35;8.30;99.90
21762;DHT22;11203;50.870;20.682;2022-11-14T11:36:05;8.50;99.90
21762;DHT22;11203;50.870;20.682;2022-11-14T11:38:43;8.40;99.90
21762;DHT22;11203;50.870;20.682;2022-11-14T11:41:22;8.60;99.90
21762;DHT22;11203;50.870;20.682;2022-11-14T11:43:57;8.60;99.90
21762;DHT22;11203;50.870;20.682;2022-11-14T11:46:58;8.50;99.90
21762;DHT22;11203;50.870;20.682;2022-11-14T11:49:47;8.50;99.90
21762;DHT22;11203;50.870;20.682;2022-11-14T11:57:38;8.30;99.90
21762;DHT22;11203;50.870;20.682;2022-11-14T12:00:24;8.30;99.90
21762;DHT22;11203;50.870;20.682;2022-11-14T12:02:51;8.30;99.90
21762;DHT22;11203;50.870;20.682;2022-11-14T12:10:56;8.30;99.90
21762;DHT22;11203;50.870;20.682;2022-11-14T12:13:44;8.30;99.90
21762;DHT22;11203;50.870;20.682;2022-11-14T12:16:20;8.30;99.90
21762;DHT22;11203;50.870;20.682;2022-11-14T12:22:12;8.40;99.90
21762;DHT22;11203;50.870;20.682;2022-11-14T12:24:49;8.40;99.90
21762;DHT22;11203;50.870;20.682;2022-11-14T12:30:47;8.40;99.90
21762;DHT22;11203;50.870;20.682;2022-11-14T12:35:50;8.40;99.90
21762;DHT22;11203;50.870;20.682;2022-11-14T12:38:20;8.40;99.90
21762;DHT22;11203;50.870;20.682;2022-11-14T12:40:58;8.40;99.90
21762;DHT22;11203;50.870;20.682;2022-11-14T12:43:32;8.50;99.90
21762;DHT22;11203;50.870;20.682;2022-11-14T12:46:04;8.50;99.90
21762;DHT22;11203;50.870;20.682;2022-11-14T12:48:36;8.50;99.90
21762;DHT22;11203;50.870;20.682;2022-11-14T12:51:08;8.50;99.90
21762;DHT22;11203;50.870;20.682;2022-11-14T12:53:54;8.50;99.90
21762;DHT22;11203;50.870;20.682;2022-11-14T12:59:38;8.40;99.90
21762;DHT22;11203;50.870;20.682;2022-11-14T13:11:41;8.30;99.90
21762;DHT22;11203;50.870;20.682;2022-11-14T13:14:29;8.30;99.90
21762;DHT22;11203;50.870;20.682;2022-11-14T13:19:59;8.20;99.90
21762;DHT22;11203;50.870;20.682;2022-11-14T13:22:45;8.20;99.90
21762;DHT22;11203;50.870;20.682;2022-11-14T13:25:19;8.30;99.90
21762;DHT22;11203;50.870;20.682;2022-11-14T13:27:47;8.30;99.90
21762;DHT22;11203;50.870;20.682;2022-11-14T13:30:13;8.20;99.90
21762;DHT22;11203;50.870;20.682;2022-11-14T13:50:18;8.00;99.90
21762;DHT22;11203;50.870;20.682;2022-11-14T13:52:50;7.80;99.90
21762;DHT22;11203;50.870;20.682;2022-11-14T13:55:21;7.80;99.90
21762;DHT22;11203;50.870;20.682;2022-11-14T14:01:22;7.80;99.90
21762;DHT22;11203;50.870;20.682;2022-11-14T14:07:13;7.70;99.90
21762;DHT22;11203;50.870;20.682;2022-11-14T14:16:09;7.60;99.90
21762;DHT22;11203;50.870;20.682;2022-11-14T14:19:07;7.60;99.90
21762;DHT22;11203;50.870;20.682;2022-11-14T14:31:11;7.40;99.90
21762;DHT22;11203;50.870;20.682;2022-11-14T14:33:44;7.40;99.90
21762;DHT22;11203;50.870;20.682;2022-11-14T14:36:29;7.40;99.90
21762;DHT22;11203;50.870;20.682;2022-11-14T14:39:16;7.30;99.90
21762;DHT22;11203;50.870;20.682;2022-11-14T14:41:44;7.30;99.90
21762;DHT22;11203;50.870;20.682;2022-11-14T14:44:21;7.30;99.90
21762;DHT22;11203;50.870;20.682;2022-11-14T14:46:48;7.30;99.90
21762;DHT22;11203;50.870;20.682;2022-11-14T14:49:29;7.30;99.90
21762;DHT22;11203;50.870;20.682;2022-11-14T14:51:57;7.30;99.90
21762;DHT22;11203;50.870;20.682;2022-11-14T14:54:26;7.30;99.90
21762;DHT22;11203;50.870;20.682;2022-11-14T14:56:55;7.30;99.90
21762;DHT22;11203;50.870;20.682;2022-11-14T14:59:29;7.20;99.90
21762;DHT22;11203;50.870;20.682;2022-11-14T15:01:56;7.10;99.90
21762;DHT22;11203;50.870;20.682;2022-11-14T15:04:25;7.10;99.90
21762;DHT22;11203;50.870;20.682;2022-11-14T15:06:53;7.00;99.90
21762;DHT22;11203;50.870;20.682;2022-11-14T15:09:25;6.90;99.90
21762;DHT22;11203;50.870;20.682;2022-11-14T15:11:59;6.80;99.90
21762;DHT22;11203;50.870;20.682;2022-11-14T15:14:29;6.90;99.90
21762;DHT22;11203;50.870;20.682;2022-11-14T15:16:58;6.80;99.90
21762;DHT22;11203;50.870;20.682;2022-11-14T15:19:33;6.80;99.90
21762;DHT22;11203;50.870;20.682;2022-11-14T15:22:21;6.80;99.90
21762;DHT22;11203;50.870;20.682;2022-11-14T15:27:53;6.70;99.90
21762;DHT22;11203;50.870;20.682;2022-11-14T15:30:22;6.60;99.90
21762;DHT22;11203;50.870;20.682;2022-11-14T15:32:53;6.70;99.90
21762;DHT22;11203;50.870;20.682;2022-11-14T15:38:03;6.60;99.90
21762;DHT22;11203;50.870;20.682;2022-11-14T15:40:37;6.60;99.90
21762;DHT22;11203;50.870;20.682;2022-11-14T15:49:23;6.50;99.90
21762;DHT22;11203;50.870;20.682;2022-11-14T15:51:56;6.50;99.90
21762;DHT22;11203;50.870;20.682;2022-11-14T15:54:27;6.50;99.90
21762;DHT22;11203;50.870;20.682;2022-11-14T15:56:56;6.40;99.90
21762;DHT22;11203;50.870;20.682;2022-11-14T15:59:25;6.40;99.90
21762;DHT22;11203;50.870;20.682;2022-11-14T16:01:55;6.50;99.90
21762;DHT22;11203;50.870;20.682;2022-11-14T16:04:28;6.50;99.90
21762;DHT22;11203;50.870;20.682;2022-11-14T16:06:57;6.40;99.90
21762;DHT22;11203;50.870;20.682;2022-11-14T16:09:23;6.50;99.90
21762;DHT22;11203;50.870;20.682;2022-11-14T16:11:49;6.40;99.90
21762;DHT22;11203;50.870;20.682;2022-11-14T16:14:15;6.40;99.90
21762;DHT22;11203;50.870;20.682;2022-11-14T16:16:41;6.40;99.90
21762;DHT22;11203;50.870;20.682;2022-11-14T16:19:13;6.30;99.90
21762;DHT22;11203;50.870;20.682;2022-11-14T16:21:41;6.30;99.90
21762;DHT22;11203;50.870;20.682;2022-11-14T16:24:16;6.30;99.90
21762;DHT22;11203;50.870;20.682;2022-11-14T16:26:44;6.30;99.90
21762;DHT22;11203;50.870;20.682;2022-11-14T16:29:11;6.30;99.90
21762;DHT22;11203;50.870;20.682;2022-11-14T16:31:37;6.30;99.90
21762;DHT22;11203;50.870;20.682;2022-11-14T16:34:04;6.20;99.90
21762;DHT22;11203;50.870;20.682;2022-11-14T16:36:30;6.20;99.90
21762;DHT22;11203;50.870;20.682;2022-11-14T16:38:59;6.10;99.90
21762;DHT22;11203;50.870;20.682;2022-11-14T16:41:27;6.00;99.90
21762;DHT22;11203;50.870;20.682;2022-11-14T16:43:54;5.90;99.90
21762;DHT22;11203;50.870;20.682;2022-11-14T16:46:21;6.00;99.90
21762;DHT22;11203;50.870;20.682;2022-11-14T16:48:48;6.00;99.90
21762;DHT22;11203;50.870;20.682;2022-11-14T16:51:14;6.00;99.90
21762;DHT22;11203;50.870;20.682;2022-11-14T16:53:40;5.90;99.90
21762;DHT22;11203;50.870;20.682;2022-11-14T16:56:09;5.90;99.90
21762;DHT22;11203;50.870;20.682;2022-11-14T16:58:38;5.90;99.90
21762;DHT22;11203;50.870;20.682;2022-11-14T17:01:07;5.80;99.90
21762;DHT22;11203;50.870;20.682;2022-11-14T17:03:39;5.80;99.90
21762;DHT22;11203;50.870;20.682;2022-11-14T17:06:07;5.80;1.00
21762;DHT22;11203;50.870;20.682;2022-11-14T17:08:37;5.80;99.90
21762;DHT22;11203;50.870;20.682;2022-11-14T17:11:08;5.80;1.00
21762;DHT22;11203;50.870;20.682;2022-11-14T17:13:36;5.80;1.00
21762;DHT22;11203;50.870;20.682;2022-11-14T17:16:03;5.80;1.00
21762;DHT22;11203;50.870;20.682;2022-11-14T17:18:30;5.90;1.00
21762;DHT22;11203;50.870;20.682;2022-11-14T17:20:56;5.90;99.90
21762;DHT22;11203;50.870;20.682;2022-11-14T17:23:22;6.00;99.90
21762;DHT22;11203;50.870;20.682;2022-11-14T17:25:48;6.00;99.90
21762;DHT22;11203;50.870;20.682;2022-11-14T17:28:14;6.00;99.90
21762;DHT22;11203;50.870;20.682;2022-11-14T17:30:41;6.10;99.90
21762;DHT22;11203;50.870;20.682;2022-11-14T17:33:08;6.00;99.90
21762;DHT22;11203;50.870;20.682;2022-11-14T17:35:34;6.00;99.90
21762;DHT22;11203;50.870;20.682;2022-11-14T17:38:02;6.10;99.90
21762;DHT22;11203;50.870;20.682;2022-11-14T17:40:28;6.10;99.90
21762;DHT22;11203;50.870;20.682;2022-11-14T17:42:54;6.00;99.90
21762;DHT22;11203;50.870;20.682;2022-11-14T17:45:20;6.00;99.90
21762;DHT22;11203;50.870;20.682;2022-11-14T17:47:46;6.00;99.90
21762;DHT22;11203;50.870;20.682;2022-11-14T17:50:12;5.90;99.90
21762;DHT22;11203;50.870;20.682;2022-11-14T17:52:38;5.90;99.90
21762;DHT22;11203;50.870;20.682;2022-11-14T17:55:06;5.90;99.90
21762;DHT22;11203;50.870;20.682;2022-11-14T17:57:33;5.90;99.90
21762;DHT22;11203;50.870;20.682;2022-11-14T17:59:59;5.90;99.90
21762;DHT22;11203;50.870;20.682;2022-11-14T18:02:28;5.80;1.00
21762;DHT22;11203;50.870;20.682;2022-11-14T18:04:55;5.80;99.90
21762;DHT22;11203;50.870;20.682;2022-11-14T18:07:21;5.80;99.90
21762;DHT22;11203;50.870;20.682;2022-11-14T18:09:48;5.80;1.00
21762;DHT22;11203;50.870;20.682;2022-11-14T18:12:16;5.90;99.90